sensor_id;sensor_type;location;lat;lon;timestamp;pressure;altitude;pressure_sealevel;temperature;humidity
45763;BME280;37512;52.408;13.356;2023-04-08T00:03:55;101589.72;;;4.99;100.00
45763;BME280;37512;52.408;13.356;2023-04-08T00:07:57;101584.75;;;5.01;100.00
45763;BME280;37512;52.408;13.356;2023-04-08T00:11:58;101578.22;;;4.97;100.00
45763;BME280;37512;52.408;13.356;2023-04-08T00:16:01;101580.97;;;4.97;100.00
45763;BME280;37512;52.408;13.356;2023-04-08T00:20:03;101586.38;;;5.02;100.00
45763;BME280;37512;52.408;13.356;2023-04-08T00:24:05;101581.06;;;5.06;100.00
45763;BME280;37512;52.408;13.356;2023-04-08T00:28:07;101580.66;;;5.12;100.00
45763;BME280;37512;52.408;13.356;2023-04-08T00:32:09;101580.66;;;5.12;100.00
45763;BME280;37512;52.408;13.356;2023-04-08T00:36:10;101586.06;;;5.03;100.00
45763;BME280;37512;52.408;13.356;2023-04-08T00:40:12;101580.25;;;5.05;100.00
45763;BME280;37512;52.408;13.356;2023-04-08T00:44:14;101576.38;;;5.06;100.00
45763;BME280;37512;52.408;13.356;2023-04-08T00:48:15;101583.53;;;5.07;100.00
45763;BME280;37512;52.408;13.356;2023-04-08T00:52:17;101584.44;;;5.02;100.00
45763;BME280;37512;52.408;13.356;2023-04-08T00:56:18;101586.38;;;5.02;100.00
45763;BME280;37512;52.408;13.356;2023-04-08T01:00:20;101581.88;;;5.06;100.00
45763;BME280;37512;52.408;13.356;2023-04-08T01:08:24;101574.84;;;5.14;100.00
45763;BME280;37512;52.408;13.356;2023-04-08T01:12:29;101579.44;;;5.05;100.00
45763;BME280;37512;52.408;13.356;2023-04-08T01:16:31;101582.50;;;5.03;100.00
45763;BME280;37512;52.408;13.356;2023-04-08T01:20:34;101586.56;;;5.06;100.00
45763;BME280;37512;52.408;13.356;2023-04-08T01:24:38;101592.47;;;4.99;100.00
45763;BME280;37512;52.408;13.356;2023-04-08T01:28:41;101598.59;;;4.96;100.00
45763;BME280;37512;52.408;13.356;2023-04-08T01:32:44;101598.50;;;5.01;100.00
45763;BME280;37512;52.408;13.356;2023-04-08T01:36:48;101595.56;;;4.97;100.00
45763;BME280;37512;52.408;13.356;2023-04-08T01:40:52;101594.31;;;5.03;100.00
45763;BME280;37512;52.408;13.356;2023-04-08T01:44:56;101599.63;;;5.00;100.00
45763;BME280;37512;52.408;13.356;2023-04-08T01:48:59;101598.31;;;4.97;100.00
45763;BME280;37512;52.408;13.356;2023-04-08T01:53:03;101597.97;;;4.99;100.00
45763;BME280;37512;52.408;13.356;2023-04-08T01:57:07;101603.47;;;4.99;100.00
45763;BME280;37512;52.408;13.356;2023-04-08T02:01:19;101608.19;;;4.98;100.00
45763;BME280;37512;52.408;13.356;2023-04-08T02:05:23;101608.19;;;4.98;100.00
45763;BME280;37512;52.408;13.356;2023-04-08T02:09:24;101601.25;;;5.01;100.00
45763;BME280;37512;52.408;13.356;2023-04-08T02:13:27;101599.72;;;4.95;100.00
45763;BME280;37512;52.408;13.356;2023-04-08T02:17:42;101607.56;;;5.01;100.00
45763;BME280;37512;52.408;13.356;2023-04-08T02:21:54;101622.22;;;5.11;100.00
45763;BME280;37512;52.408;13.356;2023-04-08T02:25:58;101612.66;;;5.08;100.00
45763;BME280;37512;52.408;13.356;2023-04-08T02:30:02;101624.50;;;5.09;100.00
45763;BME280;37512;52.408;13.356;2023-04-08T02:34:07;101621.63;;;5.00;100.00
45763;BME280;37512;52.408;13.356;2023-04-08T02:38:09;101630.81;;;5.09;100.00
45763;BME280;37512;52.408;13.356;2023-04-08T02:42:11;101627.72;;;5.11;100.00
45763;BME280;37512;52.408;13.356;2023-04-08T02:46:12;101636.81;;;5.11;100.00
45763;BME280;37512;52.408;13.356;2023-04-08T02:50:14;101631.84;;;5.13;100.00
45763;BME280;37512;52.408;13.356;2023-04-08T02:54:16;101640.38;;;5.12;100.00
45763;BME280;37512;52.408;13.356;2023-04-08T02:58:17;101639.88;;;5.10;100.00
45763;BME280;37512;52.408;13.356;2023-04-08T03:02:19;101635.28;;;5.05;100.00
45763;BME280;37512;52.408;13.356;2023-04-08T03:06:21;101647.31;;;5.09;100.00
45763;BME280;37512;52.408;13.356;2023-04-08T03:10:22;101641.94;;;5.04;100.00
45763;BME280;37512;52.408;13.356;2023-04-08T03:14:24;101638.16;;;5.00;100.00
45763;BME280;37512;52.408;13.356;2023-04-08T03:18:25;101648.13;;;4.96;100.00
45763;BME280;37512;52.408;13.356;2023-04-08T03:22:27;101649.31;;;4.90;100.00
45763;BME280;37512;52.408;13.356;2023-04-08T03:26:28;101657.47;;;4.95;100.00
45763;BME280;37512;52.408;13.356;2023-04-08T03:30:30;101666.25;;;4.97;100.00
45763;BME280;37512;52.408;13.356;2023-04-08T03:34:33;101665.66;;;5.00;100.00
45763;BME280;37512;52.408;13.356;2023-04-08T03:38:35;101665.66;;;5.00;100.00
45763;BME280;37512;52.408;13.356;2023-04-08T03:42:36;101664.41;;;5.06;100.00
45763;BME280;37512;52.408;13.356;2023-04-08T03:46:38;101666.69;;;5.18;100.00
45763;BME280;37512;52.408;13.356;2023-04-08T03:50:39;101668.09;;;5.01;100.00
45763;BME280;37512;52.408;13.356;2023-04-08T03:54:41;101667.50;;;5.18;100.00
45763;BME280;37512;52.408;13.356;2023-04-08T03:58:42;101672.28;;;5.13;100.00
45763;BME280;37512;52.408;13.356;2023-04-08T04:02:44;101674.31;;;5.07;100.00
45763;BME280;37512;52.408;13.356;2023-04-08T04:06:45;101676.44;;;4.96;100.00
45763;BME280;37512;52.408;13.356;2023-04-08T04:10:47;101696.97;;;5.04;100.00
45763;BME280;37512;52.408;13.356;2023-04-08T04:14:48;101693.38;;;5.03;100.00
45763;BME280;37512;52.408;13.356;2023-04-08T04:18:51;101700.50;;;5.05;100.00
45763;BME280;37512;52.408;13.356;2023-04-08T04:22:53;101695.22;;;5.08;100.00
45763;BME280;37512;52.408;13.356;2023-04-08T04:26:55;101695.72;;;5.10;100.00
45763;BME280;37512;52.408;13.356;2023-04-08T04:30:56;101706.03;;;5.05;100.00
45763;BME280;37512;52.408;13.356;2023-04-08T04:34:58;101714.78;;;4.93;100.00
45763;BME280;37512;52.408;13.356;2023-04-08T04:38:59;101718.84;;;4.95;100.00
45763;BME280;37512;52.408;13.356;2023-04-08T04:43:01;101725.28;;;5.05;100.00
45763;BME280;37512;52.408;13.356;2023-04-08T04:47:02;101733.94;;;5.12;100.00
45763;BME280;37512;52.408;13.356;2023-04-08T04:51:04;101728.34;;;5.17;100.00
45763;BME280;37512;52.408;13.356;2023-04-08T04:55:08;101728.88;;;5.19;100.00
45763;BME280;37512;52.408;13.356;2023-04-08T04:59:09;101731.09;;;5.17;100.00
45763;BME280;37512;52.408;13.356;2023-04-08T05:03:11;101740.09;;;5.22;100.00
45763;BME280;37512;52.408;13.356;2023-04-08T05:07:13;101745.91;;;5.21;100.00
45763;BME280;37512;52.408;13.356;2023-04-08T05:11:15;101748.53;;;5.12;100.00
45763;BME280;37512;52.408;13.356;2023-04-08T05:15:18;101747.00;;;5.20;100.00
45763;BME280;37512;52.408;13.356;2023-04-08T05:19:20;101756.16;;;5.15;100.00
45763;BME280;37512;52.408;13.356;2023-04-08T05:23:21;101761.50;;;5.39;100.00
45763;BME280;37512;52.408;13.356;2023-04-08T05:27:23;101755.19;;;5.25;100.00
45763;BME280;37512;52.408;13.356;2023-04-08T05:31:24;101758.06;;;5.34;100.00
45763;BME280;37512;52.408;13.356;2023-04-08T05:35:26;101763.75;;;5.51;100.00
45763;BME280;37512;52.408;13.356;2023-04-08T05:39:28;101772.94;;;5.47;100.00
45763;BME280;37512;52.408;13.356;2023-04-08T05:43:32;101764.38;;;5.48;100.00
45763;BME280;37512;52.408;13.356;2023-04-08T05:47:33;101772.13;;;5.60;100.00
45763;BME280;37512;52.408;13.356;2023-04-08T05:51:35;101779.78;;;5.49;100.00
45763;BME280;37512;52.408;13.356;2023-04-08T05:55:36;101792.50;;;5.45;100.00
45763;BME280;37512;52.408;13.356;2023-04-08T05:59:38;101783.75;;;5.43;100.00
45763;BME280;37512;52.408;13.356;2023-04-08T06:03:39;101792.03;;;5.57;100.00
45763;BME280;37512;52.408;13.356;2023-04-08T06:07:41;101788.88;;;5.63;100.00
45763;BME280;37512;52.408;13.356;2023-04-08T06:11:42;101790.19;;;5.66;100.00
45763;BME280;37512;52.408;13.356;2023-04-08T06:15:44;101802.44;;;5.87;100.00
45763;BME280;37512;52.408;13.356;2023-04-08T06:19:45;101798.69;;;5.97;100.00
45763;BME280;37512;52.408;13.356;2023-04-08T06:23:47;101814.91;;;6.13;100.00
45763;BME280;37512;52.408;13.356;2023-04-08T06:27:48;101809.59;;;6.16;100.00
45763;BME280;37512;52.408;13.356;2023-04-08T06:31:50;101805.09;;;6.20;100.00
45763;BME280;37512;52.408;13.356;2023-04-08T06:36:00;101809.50;;;6.07;100.00
45763;BME280;37512;52.408;13.356;2023-04-08T06:40:06;101818.16;;;6.28;100.00
45763;BME280;37512;52.408;13.356;2023-04-08T06:44:07;101819.69;;;6.35;100.00
45763;BME280;37512;52.408;13.356;2023-04-08T06:48:09;101830.47;;;6.45;100.00
45763;BME280;37512;52.408;13.356;2023-04-08T06:52:11;101835.34;;;6.62;100.00
45763;BME280;37512;52.408;13.356;2023-04-08T06:56:15;101843.84;;;6.52;100.00
45763;BME280;37512;52.408;13.356;2023-04-08T07:00:16;101846.91;;;6.64;100.00
45763;BME280;37512;52.408;13.356;2023-04-08T07:04:18;101845.16;;;6.90;100.00
45763;BME280;37512;52.408;13.356;2023-04-08T07:08:20;101834.78;;;6.74;100.00
45763;BME280;37512;52.408;13.356;2023-04-08T07:12:21;101853.38;;;7.04;100.00
45763;BME280;37512;52.408;13.356;2023-04-08T07:16:23;101851.31;;;7.10;100.00
45763;BME280;37512;52.408;13.356;2023-04-08T07:20:25;101846.81;;;7.14;100.00
45763;BME280;37512;52.408;13.356;2023-04-08T07:24:26;101849.31;;;7.24;100.00
45763;BME280;37512;52.408;13.356;2023-04-08T07:28:28;101853.25;;;7.32;100.00
45763;BME280;37512;52.408;13.356;2023-04-08T07:32:29;101858.72;;;7.46;100.00
45763;BME280;37512;52.408;13.356;2023-04-08T07:36:31;101855.44;;;7.44;100.00
45763;BME280;37512;52.408;13.356;2023-04-08T07:40:32;101864.56;;;7.84;100.00
45763;BME280;37512;52.408;13.356;2023-04-08T07:44:34;101863.63;;;7.89;100.00
45763;BME280;37512;52.408;13.356;2023-04-08T07:48:35;101869.03;;;7.94;100.00
45763;BME280;37512;52.408;13.356;2023-04-08T07:52:37;101869.44;;;7.79;100.00
45763;BME280;37512;52.408;13.356;2023-04-08T07:56:39;101870.50;;;8.00;100.00
45763;BME280;37512;52.408;13.356;2023-04-08T08:00:40;101875.81;;;7.88;100.00
45763;BME280;37512;52.408;13.356;2023-04-08T08:04:42;101884.16;;;7.65;100.00
45763;BME280;37512;52.408;13.356;2023-04-08T08:08:44;101883.44;;;7.51;100.00
45763;BME280;37512;52.408;13.356;2023-04-08T08:12:46;101890.06;;;7.50;100.00
45763;BME280;37512;52.408;13.356;2023-04-08T08:16:47;101884.34;;;7.69;100.00
45763;BME280;37512;52.408;13.356;2023-04-08T08:20:49;101890.91;;;7.82;100.00
45763;BME280;37512;52.408;13.356;2023-04-08T08:24:57;101882.63;;;7.82;100.00
45763;BME280;37512;52.408;13.356;2023-04-08T08:28:59;101887.88;;;7.92;100.00
45763;BME280;37512;52.408;13.356;2023-04-08T08:33:01;101890.38;;;8.11;100.00
45763;BME280;37512;52.408;13.356;2023-04-08T08:37:03;101888.28;;;7.77;100.00
45763;BME280;37512;52.408;13.356;2023-04-08T08:41:04;101893.81;;;8.08;100.00
45763;BME280;37512;52.408;13.356;2023-04-08T08:45:06;101894.50;;;8.22;100.00
45763;BME280;37512;52.408;13.356;2023-04-08T08:49:08;101900.41;;;8.38;100.00
45763;BME280;37512;52.408;13.356;2023-04-08T08:53:10;101900.53;;;8.24;100.00
45763;BME280;37512;52.408;13.356;2023-04-08T08:57:18;101907.47;;;8.13;100.00
45763;BME280;37512;52.408;13.356;2023-04-08T09:05:50;101923.38;;;7.99;100.00
45763;BME280;37512;52.408;13.356;2023-04-08T09:09:52;101920.66;;;8.16;100.00
45763;BME280;37512;52.408;13.356;2023-04-08T09:13:55;101926.56;;;8.32;100.00
45763;BME280;37512;52.408;13.356;2023-04-08T09:17:57;101927.94;;;8.43;100.00
45763;BME280;37512;52.408;13.356;2023-04-08T09:22:09;101938.00;;;8.96;100.00
45763;BME280;37512;52.408;13.356;2023-04-08T09:26:13;101940.59;;;8.93;100.00
45763;BME280;37512;52.408;13.356;2023-04-08T09:30:15;101949.81;;;8.53;100.00
45763;BME280;37512;52.408;13.356;2023-04-08T09:34:17;101947.03;;;8.53;100.00
45763;BME280;37512;52.408;13.356;2023-04-08T09:38:21;101953.19;;;8.42;100.00
45763;BME280;37512;52.408;13.356;2023-04-08T09:42:22;101960.38;;;7.89;100.00
45763;BME280;37512;52.408;13.356;2023-04-08T09:50:51;101957.63;;;8.60;100.00
45763;BME280;37512;52.408;13.356;2023-04-08T09:55:03;101954.63;;;8.96;100.00
45763;BME280;37512;52.408;13.356;2023-04-08T09:59:16;101956.72;;;8.99;100.00
45763;BME280;37512;52.408;13.356;2023-04-08T10:03:44;101956.41;;;9.10;100.00
45763;BME280;37512;52.408;13.356;2023-04-08T10:07:49;101956.75;;;9.08;100.00
45763;BME280;37512;52.408;13.356;2023-04-08T10:11:51;101951.53;;;9.15;100.00
45763;BME280;37512;52.408;13.356;2023-04-08T10:24:37;101954.94;;;9.38;100.00
45763;BME280;37512;52.408;13.356;2023-04-08T10:28:38;101956.25;;;9.50;100.00
45763;BME280;37512;52.408;13.356;2023-04-08T10:32:40;101957.72;;;9.47;100.00
45763;BME280;37512;52.408;13.356;2023-04-08T10:36:43;101953.63;;;9.10;100.00
45763;BME280;37512;52.408;13.356;2023-04-08T10:40:47;101957.72;;;9.47;100.00
45763;BME280;37512;52.408;13.356;2023-04-08T10:44:49;101958.66;;;9.60;100.00
45763;BME280;37512;52.408;13.356;2023-04-08T10:49:00;101959.66;;;9.55;100.00
45763;BME280;37512;52.408;13.356;2023-04-08T10:53:02;101957.59;;;10.08;100.00
45763;BME280;37512;52.408;13.356;2023-04-08T10:57:03;101954.97;;;10.59;100.00
45763;BME280;37512;52.408;13.356;2023-04-08T11:01:06;101955.47;;;10.52;100.00
45763;BME280;37512;52.408;13.356;2023-04-08T11:05:09;101958.00;;;10.27;100.00
45763;BME280;37512;52.408;13.356;2023-04-08T11:09:11;101953.75;;;10.39;100.00
45763;BME280;37512;52.408;13.356;2023-04-08T11:13:13;101952.97;;;10.30;100.00
45763;BME280;37512;52.408;13.356;2023-04-08T11:17:15;101963.56;;;10.66;100.00
45763;BME280;37512;52.408;13.356;2023-04-08T11:21:16;101969.03;;;10.83;100.00
45763;BME280;37512;52.408;13.356;2023-04-08T11:25:18;101963.88;;;10.94;100.00
45763;BME280;37512;52.408;13.356;2023-04-08T11:29:20;101967.84;;;10.63;100.00
45763;BME280;37512;52.408;13.356;2023-04-08T11:33:25;101964.09;;;10.89;100.00
45763;BME280;37512;52.408;13.356;2023-04-08T11:37:37;101963.22;;;10.97;100.00
45763;BME280;37512;52.408;13.356;2023-04-08T11:41:38;101969.09;;;10.27;100.00
45763;BME280;37512;52.408;13.356;2023-04-08T11:45:43;101967.47;;;10.95;100.00
45763;BME280;37512;52.408;13.356;2023-04-08T11:49:45;101965.19;;;10.67;100.00
45763;BME280;37512;52.408;13.356;2023-04-08T11:53:47;101963.63;;;11.50;100.00
45763;BME280;37512;52.408;13.356;2023-04-08T11:57:50;101958.59;;;12.22;95.44
45763;BME280;37512;52.408;13.356;2023-04-08T12:01:53;101963.50;;;12.38;93.46
45763;BME280;37512;52.408;13.356;2023-04-08T12:05:54;101956.13;;;11.96;97.20
45763;BME280;37512;52.408;13.356;2023-04-08T12:09:56;101957.13;;;11.58;99.43
45763;BME280;37512;52.408;13.356;2023-04-08T12:13:57;101962.69;;;11.25;100.00
45763;BME280;37512;52.408;13.356;2023-04-08T12:18:01;101962.03;;;11.40;100.00
45763;BME280;37512;52.408;13.356;2023-04-08T12:22:08;101968.84;;;11.09;100.00
45763;BME280;37512;52.408;13.356;2023-04-08T12:26:10;101971.28;;;11.32;100.00
45763;BME280;37512;52.408;13.356;2023-04-08T12:30:12;101971.88;;;11.38;100.00
45763;BME280;37512;52.408;13.356;2023-04-08T12:34:16;101970.75;;;11.39;93.61
45763;BME280;37512;52.408;13.356;2023-04-08T12:38:18;101967.75;;;11.44;90.78
45763;BME280;37512;52.408;13.356;2023-04-08T12:42:20;101966.75;;;12.64;81.41
45763;BME280;37512;52.408;13.356;2023-04-08T12:46:22;101957.16;;;15.14;69.00
45763;BME280;37512;52.408;13.356;2023-04-08T12:50:23;101955.91;;;15.50;59.77
45763;BME280;37512;52.408;13.356;2023-04-08T12:54:25;101957.91;;;14.12;61.09
45763;BME280;37512;52.408;13.356;2023-04-08T12:58:26;101964.84;;;12.93;65.66
45763;BME280;37512;52.408;13.356;2023-04-08T13:02:28;101956.19;;;12.82;66.27
45763;BME280;37512;52.408;13.356;2023-04-08T13:06:30;101951.25;;;13.04;62.69
45763;BME280;37512;52.408;13.356;2023-04-08T13:10:32;101953.66;;;14.18;57.77
45763;BME280;37512;52.408;13.356;2023-04-08T13:14:33;101948.25;;;14.25;57.57
45763;BME280;37512;52.408;13.356;2023-04-08T13:18:35;101953.56;;;15.33;54.75
45763;BME280;37512;52.408;13.356;2023-04-08T13:22:36;101951.28;;;16.23;48.97
45763;BME280;37512;52.408;13.356;2023-04-08T13:26:38;101946.25;;;17.12;48.90
45763;BME280;37512;52.408;13.356;2023-04-08T13:30:39;101952.47;;;16.95;48.34
45763;BME280;37512;52.408;13.356;2023-04-08T13:34:41;101943.41;;;17.39;46.92
45763;BME280;37512;52.408;13.356;2023-04-08T13:38:42;101942.88;;;17.30;46.54
45763;BME280;37512;52.408;13.356;2023-04-08T13:42:46;101945.47;;;16.09;48.45
45763;BME280;37512;52.408;13.356;2023-04-08T13:46:48;101945.56;;;15.93;50.62
45763;BME280;37512;52.408;13.356;2023-04-08T13:50:49;101935.56;;;16.38;48.08
45763;BME280;37512;52.408;13.356;2023-04-08T13:54:51;101941.28;;;17.29;48.04
45763;BME280;37512;52.408;13.356;2023-04-08T13:58:52;101937.44;;;18.15;43.58
45763;BME280;37512;52.408;13.356;2023-04-08T14:02:58;101936.38;;;18.34;42.57
45763;BME280;37512;52.408;13.356;2023-04-08T14:06:59;101933.63;;;18.42;43.35
45763;BME280;37512;52.408;13.356;2023-04-08T14:11:01;101931.66;;;17.97;43.44
45763;BME280;37512;52.408;13.356;2023-04-08T14:15:02;101936.47;;;18.45;41.42
45763;BME280;37512;52.408;13.356;2023-04-08T14:19:04;101934.22;;;18.17;41.61
45763;BME280;37512;52.408;13.356;2023-04-08T14:23:06;101941.44;;;16.83;44.25
45763;BME280;37512;52.408;13.356;2023-04-08T14:27:08;101932.34;;;15.32;48.79
45763;BME280;37512;52.408;13.356;2023-04-08T14:31:09;101934.25;;;16.82;45.60
45763;BME280;37512;52.408;13.356;2023-04-08T14:35:11;101932.81;;;17.25;44.59
45763;BME280;37512;52.408;13.356;2023-04-08T14:39:12;101931.44;;;17.80;42.84
45763;BME280;37512;52.408;13.356;2023-04-08T14:43:13;101922.69;;;17.85;42.59
45763;BME280;37512;52.408;13.356;2023-04-08T14:47:15;101924.03;;;18.02;42.34
45763;BME280;37512;52.408;13.356;2023-04-08T14:51:17;101932.53;;;16.77;44.98
45763;BME280;37512;52.408;13.356;2023-04-08T14:55:18;101922.06;;;18.02;43.27
45763;BME280;37512;52.408;13.356;2023-04-08T14:59:22;101926.69;;;18.84;40.39
45763;BME280;37512;52.408;13.356;2023-04-08T15:03:24;101929.63;;;16.43;44.95
45763;BME280;37512;52.408;13.356;2023-04-08T15:07:26;101929.84;;;15.46;46.57
45763;BME280;37512;52.408;13.356;2023-04-08T15:11:28;101935.81;;;15.44;47.61
45763;BME280;37512;52.408;13.356;2023-04-08T15:15:29;101926.09;;;15.38;47.73
45763;BME280;37512;52.408;13.356;2023-04-08T15:19:31;101931.13;;;15.91;45.80
45763;BME280;37512;52.408;13.356;2023-04-08T15:23:32;101934.13;;;16.78;44.77
45763;BME280;37512;52.408;13.356;2023-04-08T15:27:34;101932.31;;;15.28;47.98
45763;BME280;37512;52.408;13.356;2023-04-08T15:31:36;101935.47;;;14.91;48.95
45763;BME280;37512;52.408;13.356;2023-04-08T15:35:37;101934.06;;;14.81;49.04
45763;BME280;37512;52.408;13.356;2023-04-08T15:39:39;101929.72;;;14.49;50.63
45763;BME280;37512;52.408;13.356;2023-04-08T15:43:41;101938.97;;;15.04;49.27
45763;BME280;37512;52.408;13.356;2023-04-08T15:47:43;101939.97;;;14.96;49.73
45763;BME280;37512;52.408;13.356;2023-04-08T15:51:45;101948.34;;;14.44;52.50
45763;BME280;37512;52.408;13.356;2023-04-08T15:55:49;101942.22;;;13.91;54.38
45763;BME280;37512;52.408;13.356;2023-04-08T15:59:51;101945.59;;;13.00;56.93
45763;BME280;37512;52.408;13.356;2023-04-08T16:03:53;101937.97;;;12.85;59.95
45763;BME280;37512;52.408;13.356;2023-04-08T16:07:55;101937.47;;;14.08;55.20
45763;BME280;37512;52.408;13.356;2023-04-08T16:11:58;101940.25;;;13.92;54.34
45763;BME280;37512;52.408;13.356;2023-04-08T16:16:01;101943.09;;;15.10;50.60
45763;BME280;37512;52.408;13.356;2023-04-08T16:20:03;101945.00;;;15.64;48.62
45763;BME280;37512;52.408;13.356;2023-04-08T16:24:05;101954.16;;;15.03;50.04
45763;BME280;37512;52.408;13.356;2023-04-08T16:28:07;101959.06;;;14.74;50.45
45763;BME280;37512;52.408;13.356;2023-04-08T16:32:08;101965.22;;;14.32;51.74
45763;BME280;37512;52.408;13.356;2023-04-08T16:36:10;101968.13;;;13.76;54.41
45763;BME280;37512;52.408;13.356;2023-04-08T16:40:13;101989.41;;;12.50;64.63
45763;BME280;37512;52.408;13.356;2023-04-08T16:44:14;102001.88;;;11.32;78.51
45763;BME280;37512;52.408;13.356;2023-04-08T16:48:16;101991.56;;;11.12;82.23
45763;BME280;37512;52.408;13.356;2023-04-08T16:52:18;101997.09;;;10.91;83.95
45763;BME280;37512;52.408;13.356;2023-04-08T16:56:19;102003.06;;;10.24;88.65
45763;BME280;37512;52.408;13.356;2023-04-08T17:00:22;102012.53;;;10.23;89.89
45763;BME280;37512;52.408;13.356;2023-04-08T17:04:23;102034.00;;;9.88;91.47
45763;BME280;37512;52.408;13.356;2023-04-08T17:08:24;102021.75;;;9.80;93.27
45763;BME280;37512;52.408;13.356;2023-04-08T17:12:26;102021.53;;;10.20;93.22
45763;BME280;37512;52.408;13.356;2023-04-08T17:16:28;102031.31;;;10.18;91.90
45763;BME280;37512;52.408;13.356;2023-04-08T17:20:29;102039.22;;;9.63;94.33
45763;BME280;37512;52.408;13.356;2023-04-08T17:24:31;102048.03;;;9.57;94.74
45763;BME280;37512;52.408;13.356;2023-04-08T17:28:32;102053.69;;;9.17;96.98
45763;BME280;37512;52.408;13.356;2023-04-08T17:32:34;102062.47;;;9.19;99.02
45763;BME280;37512;52.408;13.356;2023-04-08T17:36:36;102073.81;;;8.91;100.00
45763;BME280;37512;52.408;13.356;2023-04-08T17:40:38;102078.00;;;8.40;100.00
45763;BME280;37512;52.408;13.356;2023-04-08T17:44:39;102077.09;;;8.31;100.00
45763;BME280;37512;52.408;13.356;2023-04-08T17:48:42;102083.66;;;8.12;100.00
45763;BME280;37512;52.408;13.356;2023-04-08T17:52:44;102094.13;;;8.24;100.00
45763;BME280;37512;52.408;13.356;2023-04-08T17:56:48;102096.09;;;8.01;100.00
45763;BME280;37512;52.408;13.356;2023-04-08T18:00:50;102106.09;;;8.11;100.00
45763;BME280;37512;52.408;13.356;2023-04-08T18:04:52;102110.91;;;7.83;100.00
45763;BME280;37512;52.408;13.356;2023-04-08T18:08:55;102120.75;;;7.75;100.00
45763;BME280;37512;52.408;13.356;2023-04-08T18:12:57;102129.59;;;7.49;100.00
45763;BME280;37512;52.408;13.356;2023-04-08T18:17:04;102143.53;;;7.58;100.00
45763;BME280;37512;52.408;13.356;2023-04-08T18:21:07;102141.44;;;7.64;100.00
45763;BME280;37512;52.408;13.356;2023-04-08T18:25:08;102147.81;;;7.64;100.00
45763;BME280;37512;52.408;13.356;2023-04-08T18:29:10;102150.91;;;7.49;100.00
45763;BME280;37512;52.408;13.356;2023-04-08T18:33:11;102157.84;;;7.60;100.00
45763;BME280;37512;52.408;13.356;2023-04-08T18:37:13;102163.66;;;7.72;100.00
45763;BME280;37512;52.408;13.356;2023-04-08T18:41:17;102169.50;;;7.71;100.00
45763;BME280;37512;52.408;13.356;2023-04-08T18:45:18;102178.53;;;7.21;100.00
45763;BME280;37512;52.408;13.356;2023-04-08T18:49:20;102179.34;;;7.49;100.00
45763;BME280;37512;52.408;13.356;2023-04-08T18:53:22;102180.34;;;7.67;100.00
45763;BME280;37512;52.408;13.356;2023-04-08T18:57:23;102179.75;;;7.43;100.00
45763;BME280;37512;52.408;13.356;2023-04-08T19:01:25;102191.00;;;7.46;100.00
45763;BME280;37512;52.408;13.356;2023-04-08T19:05:29;102187.09;;;7.61;100.00
45763;BME280;37512;52.408;13.356;2023-04-08T19:09:33;102196.44;;;7.24;100.00
45763;BME280;37512;52.408;13.356;2023-04-08T19:13:34;102192.03;;;7.37;100.00
45763;BME280;37512;52.408;13.356;2023-04-08T19:17:36;102201.63;;;7.11;100.00
45763;BME280;37512;52.408;13.356;2023-04-08T19:21:37;102201.53;;;7.58;100.00
45763;BME280;37512;52.408;13.356;2023-04-08T19:25:39;102196.19;;;7.62;100.00
45763;BME280;37512;52.408;13.356;2023-04-08T19:29:40;102194.69;;;7.42;100.00
45763;BME280;37512;52.408;13.356;2023-04-08T19:33:42;102182.59;;;7.65;100.00
45763;BME280;37512;52.408;13.356;2023-04-08T19:37:44;102195.19;;;7.71;98.72
45763;BME280;37512;52.408;13.356;2023-04-08T19:41:46;102204.50;;;7.48;100.00
45763;BME280;37512;52.408;13.356;2023-04-08T19:45:55;102201.22;;;7.73;100.00
45763;BME280;37512;52.408;13.356;2023-04-08T19:49:56;102202.34;;;7.72;100.00
45763;BME280;37512;52.408;13.356;2023-04-08T19:53:59;102203.66;;;7.75;99.02
45763;BME280;37512;52.408;13.356;2023-04-08T19:58:01;102207.75;;;7.78;100.00
45763;BME280;37512;52.408;13.356;2023-04-08T20:02:02;102206.94;;;7.77;98.80
45763;BME280;37512;52.408;13.356;2023-04-08T20:06:04;102205.47;;;7.93;97.68
45763;BME280;37512;52.408;13.356;2023-04-08T20:10:06;102202.53;;;7.90;98.48
45763;BME280;37512;52.408;13.356;2023-04-08T20:14:08;102207.94;;;7.95;97.32
45763;BME280;37512;52.408;13.356;2023-04-08T20:18:10;102207.78;;;7.50;100.00
45763;BME280;37512;52.408;13.356;2023-04-08T20:22:12;102206.97;;;7.49;99.10
45763;BME280;37512;52.408;13.356;2023-04-08T20:26:14;102207.06;;;7.58;97.88
45763;BME280;37512;52.408;13.356;2023-04-08T20:30:15;102208.59;;;7.37;100.00
45763;BME280;37512;52.408;13.356;2023-04-08T20:34:17;102201.31;;;7.54;100.00
45763;BME280;37512;52.408;13.356;2023-04-08T20:38:18;102203.19;;;7.45;100.00
45763;BME280;37512;52.408;13.356;2023-04-08T20:42:20;102199.97;;;6.97;100.00
45763;BME280;37512;52.408;13.356;2023-04-08T20:46:21;102202.97;;;7.00;100.00
45763;BME280;37512;52.408;13.356;2023-04-08T20:50:25;102204.94;;;7.41;100.00
45763;BME280;37512;52.408;13.356;2023-04-08T20:54:28;102207.38;;;7.43;99.90
45763;BME280;37512;52.408;13.356;2023-04-08T20:58:31;102216.69;;;7.47;100.00
45763;BME280;37512;52.408;13.356;2023-04-08T21:02:33;102215.47;;;7.25;100.00
45763;BME280;37512;52.408;13.356;2023-04-08T21:06:35;102219.22;;;7.29;100.00
45763;BME280;37512;52.408;13.356;2023-04-08T21:10:37;102221.00;;;7.25;100.00
45763;BME280;37512;52.408;13.356;2023-04-08T21:14:39;102221.19;;;7.43;100.00